sensor_id;sensor_type;location;lat;lon;timestamp;P1;durP1;ratioP1;P2;durP2;ratioP2
57319;SDS011;43158;51.026;18.190;2023-05-14T00:00:21;12.10;;;10.80;;
57319;SDS011;43158;51.026;18.190;2023-05-14T00:02:49;11.60;;;10.00;;
57319;SDS011;43158;51.026;18.190;2023-05-14T00:05:15;11.50;;;9.90;;
57319;SDS011;43158;51.026;18.190;2023-05-14T00:07:41;9.80;;;8.80;;
57319;SDS011;43158;51.026;18.190;2023-05-14T00:10:08;15.40;;;10.90;;
57319;SDS011;43158;51.026;18.190;2023-05-14T00:12:35;17.60;;;12.90;;
57319;SDS011;43158;51.026;18.190;2023-05-14T00:15:01;15.60;;;12.50;;
57319;SDS011;43158;51.026;18.190;2023-05-14T00:17:27;14.00;;;11.20;;
57319;SDS011;43158;51.026;18.190;2023-05-14T00:19:55;11.80;;;9.50;;
57319;SDS011;43158;51.026;18.190;2023-05-14T00:22:21;10.40;;;9.30;;
57319;SDS011;43158;51.026;18.190;2023-05-14T00:24:47;12.10;;;10.20;;
57319;SDS011;43158;51.026;18.190;2023-05-14T00:27:14;11.20;;;9.00;;
57319;SDS011;43158;51.026;18.190;2023-05-14T00:29:40;14.40;;;11.70;;
57319;SDS011;43158;51.026;18.190;2023-05-14T00:32:06;11.90;;;10.20;;
57319;SDS011;43158;51.026;18.190;2023-05-14T00:34:33;11.80;;;10.10;;
57319;SDS011;43158;51.026;18.190;2023-05-14T00:37:00;10.30;;;8.60;;
57319;SDS011;43158;51.026;18.190;2023-05-14T00:39:26;14.50;;;9.00;;
57319;SDS011;43158;51.026;18.190;2023-05-14T00:41:53;11.60;;;9.90;;
57319;SDS011;43158;51.026;18.190;2023-05-14T00:44:19;11.00;;;9.60;;
57319;SDS011;43158;51.026;18.190;2023-05-14T00:46:46;12.70;;;10.20;;
57319;SDS011;43158;51.026;18.190;2023-05-14T00:49:12;13.90;;;12.40;;
57319;SDS011;43158;51.026;18.190;2023-05-14T00:51:38;14.60;;;11.20;;
57319;SDS011;43158;51.026;18.190;2023-05-14T00:54:06;13.50;;;10.60;;
57319;SDS011;43158;51.026;18.190;2023-05-14T00:56:33;14.00;;;11.20;;
57319;SDS011;43158;51.026;18.190;2023-05-14T00:59:00;13.20;;;11.90;;
57319;SDS011;43158;51.026;18.190;2023-05-14T01:01:26;15.40;;;12.90;;
57319;SDS011;43158;51.026;18.190;2023-05-14T01:03:53;13.00;;;11.70;;
57319;SDS011;43158;51.026;18.190;2023-05-14T01:06:30;11.20;;;10.00;;
57319;SDS011;43158;51.026;18.190;2023-05-14T01:11:28;13.00;;;11.40;;
57319;SDS011;43158;51.026;18.190;2023-05-14T01:14:06;15.60;;;10.50;;
57319;SDS011;43158;51.026;18.190;2023-05-14T01:16:55;13.40;;;11.00;;
57319;SDS011;43158;51.026;18.190;2023-05-14T01:19:27;14.20;;;12.40;;
57319;SDS011;43158;51.026;18.190;2023-05-14T01:21:55;13.80;;;12.30;;
57319;SDS011;43158;51.026;18.190;2023-05-14T01:24:21;15.60;;;12.50;;
57319;SDS011;43158;51.026;18.190;2023-05-14T01:26:47;13.60;;;11.00;;
57319;SDS011;43158;51.026;18.190;2023-05-14T01:29:23;13.30;;;11.90;;
57319;SDS011;43158;51.026;18.190;2023-05-14T01:31:52;11.40;;;10.20;;
57319;SDS011;43158;51.026;18.190;2023-05-14T01:34:21;10.30;;;9.30;;
57319;SDS011;43158;51.026;18.190;2023-05-14T01:36:49;13.60;;;10.60;;
57319;SDS011;43158;51.026;18.190;2023-05-14T01:39:16;11.70;;;10.60;;
57319;SDS011;43158;51.026;18.190;2023-05-14T01:41:43;14.40;;;10.50;;
57319;SDS011;43158;51.026;18.190;2023-05-14T01:44:11;13.70;;;12.10;;
57319;SDS011;43158;51.026;18.190;2023-05-14T01:46:37;15.10;;;12.00;;
57319;SDS011;43158;51.026;18.190;2023-05-14T01:49:04;15.50;;;11.40;;
57319;SDS011;43158;51.026;18.190;2023-05-14T01:51:30;13.00;;;11.80;;
57319;SDS011;43158;51.026;18.190;2023-05-14T01:53:56;13.90;;;12.30;;
57319;SDS011;43158;51.026;18.190;2023-05-14T01:56:23;14.70;;;12.60;;
57319;SDS011;43158;51.026;18.190;2023-05-14T01:58:50;13.80;;;11.80;;
57319;SDS011;43158;51.026;18.190;2023-05-14T02:01:16;16.00;;;11.80;;
57319;SDS011;43158;51.026;18.190;2023-05-14T02:03:43;12.70;;;10.00;;
57319;SDS011;43158;51.026;18.190;2023-05-14T02:06:09;11.00;;;9.90;;
57319;SDS011;43158;51.026;18.190;2023-05-14T02:08:35;15.40;;;10.80;;
57319;SDS011;43158;51.026;18.190;2023-05-14T02:11:02;15.60;;;11.40;;
57319;SDS011;43158;51.026;18.190;2023-05-14T02:13:28;18.20;;;12.00;;
57319;SDS011;43158;51.026;18.190;2023-05-14T02:15:55;15.90;;;12.90;;
57319;SDS011;43158;51.026;18.190;2023-05-14T02:18:21;15.40;;;12.40;;
57319;SDS011;43158;51.026;18.190;2023-05-14T02:20:47;14.90;;;12.70;;
57319;SDS011;43158;51.026;18.190;2023-05-14T02:23:14;13.20;;;11.60;;
57319;SDS011;43158;51.026;18.190;2023-05-14T02:25:40;14.30;;;12.50;;
57319;SDS011;43158;51.026;18.190;2023-05-14T02:28:07;14.30;;;12.90;;
57319;SDS011;43158;51.026;18.190;2023-05-14T02:30:33;13.60;;;12.10;;
57319;SDS011;43158;51.026;18.190;2023-05-14T02:33:00;14.20;;;12.00;;
57319;SDS011;43158;51.026;18.190;2023-05-14T02:35:27;13.20;;;11.80;;
57319;SDS011;43158;51.026;18.190;2023-05-14T02:37:53;14.00;;;12.60;;
57319;SDS011;43158;51.026;18.190;2023-05-14T02:40:19;12.30;;;11.10;;
57319;SDS011;43158;51.026;18.190;2023-05-14T02:42:46;15.10;;;12.30;;
57319;SDS011;43158;51.026;18.190;2023-05-14T02:45:12;12.50;;;11.20;;
57319;SDS011;43158;51.026;18.190;2023-05-14T02:47:38;15.80;;;13.20;;
57319;SDS011;43158;51.026;18.190;2023-05-14T02:50:05;14.90;;;13.40;;
57319;SDS011;43158;51.026;18.190;2023-05-14T02:52:32;18.00;;;14.10;;
57319;SDS011;43158;51.026;18.190;2023-05-14T02:54:58;16.40;;;14.40;;
57319;SDS011;43158;51.026;18.190;2023-05-14T02:57:24;18.00;;;14.90;;
57319;SDS011;43158;51.026;18.190;2023-05-14T02:59:51;15.50;;;13.40;;
57319;SDS011;43158;51.026;18.190;2023-05-14T03:02:17;15.60;;;14.00;;
57319;SDS011;43158;51.026;18.190;2023-05-14T03:04:43;13.70;;;12.00;;
57319;SDS011;43158;51.026;18.190;2023-05-14T03:07:10;16.20;;;13.00;;
57319;SDS011;43158;51.026;18.190;2023-05-14T03:09:36;14.80;;;13.20;;
57319;SDS011;43158;51.026;18.190;2023-05-14T03:12:02;14.00;;;12.60;;
57319;SDS011;43158;51.026;18.190;2023-05-14T03:14:29;13.60;;;12.20;;
57319;SDS011;43158;51.026;18.190;2023-05-14T03:16:56;14.00;;;11.80;;
57319;SDS011;43158;51.026;18.190;2023-05-14T03:19:22;14.80;;;13.40;;
57319;SDS011;43158;51.026;18.190;2023-05-14T03:21:48;15.80;;;13.10;;
57319;SDS011;43158;51.026;18.190;2023-05-14T03:24:15;14.70;;;13.30;;
57319;SDS011;43158;51.026;18.190;2023-05-14T03:26:42;17.80;;;15.80;;
57319;SDS011;43158;51.026;18.190;2023-05-14T03:29:08;15.10;;;13.60;;
57319;SDS011;43158;51.026;18.190;2023-05-14T03:31:35;15.30;;;13.40;;
57319;SDS011;43158;51.026;18.190;2023-05-14T03:34:01;14.80;;;12.90;;
57319;SDS011;43158;51.026;18.190;2023-05-14T03:36:27;14.80;;;12.90;;
57319;SDS011;43158;51.026;18.190;2023-05-14T03:38:53;14.80;;;12.90;;
57319;SDS011;43158;51.026;18.190;2023-05-14T03:41:20;13.90;;;12.50;;
57319;SDS011;43158;51.026;18.190;2023-05-14T03:43:47;13.50;;;12.10;;
57319;SDS011;43158;51.026;18.190;2023-05-14T03:46:13;13.60;;;11.90;;
57319;SDS011;43158;51.026;18.190;2023-05-14T03:48:39;15.30;;;13.80;;
57319;SDS011;43158;51.026;18.190;2023-05-14T03:51:08;15.00;;;12.70;;
57319;SDS011;43158;51.026;18.190;2023-05-14T03:53:34;17.60;;;14.00;;
57319;SDS011;43158;51.026;18.190;2023-05-14T03:56:00;15.80;;;14.20;;
57319;SDS011;43158;51.026;18.190;2023-05-14T03:58:26;16.10;;;14.00;;
57319;SDS011;43158;51.026;18.190;2023-05-14T04:00:53;16.10;;;14.40;;
57319;SDS011;43158;51.026;18.190;2023-05-14T04:03:19;15.50;;;13.80;;
57319;SDS011;43158;51.026;18.190;2023-05-14T04:05:46;15.20;;;13.60;;
57319;SDS011;43158;51.026;18.190;2023-05-14T04:08:14;15.80;;;13.00;;
57319;SDS011;43158;51.026;18.190;2023-05-14T04:10:42;13.50;;;12.10;;
57319;SDS011;43158;51.026;18.190;2023-05-14T04:13:19;16.30;;;14.70;;
57319;SDS011;43158;51.026;18.190;2023-05-14T04:15:45;17.20;;;15.40;;
57319;SDS011;43158;51.026;18.190;2023-05-14T04:18:12;17.70;;;14.60;;
57319;SDS011;43158;51.026;18.190;2023-05-14T04:20:38;17.90;;;16.30;;
57319;SDS011;43158;51.026;18.190;2023-05-14T04:23:05;17.90;;;15.20;;
57319;SDS011;43158;51.026;18.190;2023-05-14T04:25:31;16.50;;;14.80;;
57319;SDS011;43158;51.026;18.190;2023-05-14T04:27:57;16.40;;;14.70;;
57319;SDS011;43158;51.026;18.190;2023-05-14T04:30:23;20.90;;;15.60;;
57319;SDS011;43158;51.026;18.190;2023-05-14T04:32:50;19.90;;;14.40;;
57319;SDS011;43158;51.026;18.190;2023-05-14T04:35:17;17.00;;;15.20;;
57319;SDS011;43158;51.026;18.190;2023-05-14T04:37:45;16.40;;;14.10;;
57319;SDS011;43158;51.026;18.190;2023-05-14T04:40:11;18.50;;;15.70;;
57319;SDS011;43158;51.026;18.190;2023-05-14T04:42:38;17.00;;;15.30;;
57319;SDS011;43158;51.026;18.190;2023-05-14T04:45:04;15.00;;;13.50;;
57319;SDS011;43158;51.026;18.190;2023-05-14T04:47:31;17.50;;;15.30;;
57319;SDS011;43158;51.026;18.190;2023-05-14T04:49:57;17.60;;;15.60;;
57319;SDS011;43158;51.026;18.190;2023-05-14T04:52:24;18.70;;;15.20;;
57319;SDS011;43158;51.026;18.190;2023-05-14T04:54:51;16.60;;;14.70;;
57319;SDS011;43158;51.026;18.190;2023-05-14T04:57:17;15.80;;;13.90;;
57319;SDS011;43158;51.026;18.190;2023-05-14T04:59:43;15.00;;;13.40;;
57319;SDS011;43158;51.026;18.190;2023-05-14T05:02:09;15.80;;;14.10;;
57319;SDS011;43158;51.026;18.190;2023-05-14T05:04:36;14.60;;;12.80;;
57319;SDS011;43158;51.026;18.190;2023-05-14T05:07:02;14.90;;;13.40;;
57319;SDS011;43158;51.026;18.190;2023-05-14T05:09:31;15.40;;;13.80;;
57319;SDS011;43158;51.026;18.190;2023-05-14T05:11:57;15.70;;;14.10;;
57319;SDS011;43158;51.026;18.190;2023-05-14T05:14:23;14.90;;;13.20;;
57319;SDS011;43158;51.026;18.190;2023-05-14T05:16:50;13.40;;;12.10;;
57319;SDS011;43158;51.026;18.190;2023-05-14T05:19:16;13.40;;;11.90;;
57319;SDS011;43158;51.026;18.190;2023-05-14T05:21:42;13.50;;;12.20;;
57319;SDS011;43158;51.026;18.190;2023-05-14T05:24:09;11.20;;;10.10;;
57319;SDS011;43158;51.026;18.190;2023-05-14T05:26:36;12.40;;;10.30;;
57319;SDS011;43158;51.026;18.190;2023-05-14T05:29:14;10.80;;;9.70;;
57319;SDS011;43158;51.026;18.190;2023-05-14T05:31:43;12.80;;;11.50;;
57319;SDS011;43158;51.026;18.190;2023-05-14T05:34:16;16.80;;;10.50;;
57319;SDS011;43158;51.026;18.190;2023-05-14T05:36:53;11.70;;;10.50;;
57319;SDS011;43158;51.026;18.190;2023-05-14T05:39:26;11.40;;;10.30;;
57319;SDS011;43158;51.026;18.190;2023-05-14T05:42:06;10.80;;;9.30;;
57319;SDS011;43158;51.026;18.190;2023-05-14T05:44:34;11.00;;;9.90;;
57319;SDS011;43158;51.026;18.190;2023-05-14T05:47:01;9.40;;;8.50;;
57319;SDS011;43158;51.026;18.190;2023-05-14T05:49:33;9.60;;;8.60;;
57319;SDS011;43158;51.026;18.190;2023-05-14T05:54:33;10.10;;;9.10;;
57319;SDS011;43158;51.026;18.190;2023-05-14T05:57:10;9.40;;;8.50;;
57319;SDS011;43158;51.026;18.190;2023-05-14T05:59:38;10.60;;;8.10;;
57319;SDS011;43158;51.026;18.190;2023-05-14T06:02:06;9.20;;;8.30;;
57319;SDS011;43158;51.026;18.190;2023-05-14T06:04:35;8.80;;;7.70;;
57319;SDS011;43158;51.026;18.190;2023-05-14T06:07:03;11.50;;;8.80;;
57319;SDS011;43158;51.026;18.190;2023-05-14T06:09:31;9.40;;;8.50;;
57319;SDS011;43158;51.026;18.190;2023-05-14T06:12:00;9.00;;;8.10;;
57319;SDS011;43158;51.026;18.190;2023-05-14T06:14:34;10.10;;;8.70;;
57319;SDS011;43158;51.026;18.190;2023-05-14T06:17:15;9.20;;;8.30;;
57319;SDS011;43158;51.026;18.190;2023-05-14T06:19:43;9.80;;;8.00;;
57319;SDS011;43158;51.026;18.190;2023-05-14T06:22:17;7.70;;;6.90;;
57319;SDS011;43158;51.026;18.190;2023-05-14T06:24:44;8.50;;;6.90;;
57319;SDS011;43158;51.026;18.190;2023-05-14T06:27:12;8.80;;;8.10;;
57319;SDS011;43158;51.026;18.190;2023-05-14T06:29:40;7.50;;;6.80;;
57319;SDS011;43158;51.026;18.190;2023-05-14T06:32:13;9.40;;;8.50;;
57319;SDS011;43158;51.026;18.190;2023-05-14T06:34:58;7.10;;;6.50;;
57319;SDS011;43158;51.026;18.190;2023-05-14T06:37:24;8.20;;;7.40;;
57319;SDS011;43158;51.026;18.190;2023-05-14T06:39:51;6.60;;;5.90;;
57319;SDS011;43158;51.026;18.190;2023-05-14T06:42:17;8.80;;;6.70;;
57319;SDS011;43158;51.026;18.190;2023-05-14T06:44:44;6.80;;;6.00;;
57319;SDS011;43158;51.026;18.190;2023-05-14T06:47:10;5.80;;;4.90;;
57319;SDS011;43158;51.026;18.190;2023-05-14T06:49:37;8.00;;;5.60;;
57319;SDS011;43158;51.026;18.190;2023-05-14T06:52:04;5.70;;;5.20;;
57319;SDS011;43158;51.026;18.190;2023-05-14T06:54:30;3.70;;;3.30;;
57319;SDS011;43158;51.026;18.190;2023-05-14T06:56:57;4.50;;;4.00;;
57319;SDS011;43158;51.026;18.190;2023-05-14T06:59:24;4.10;;;3.70;;
57319;SDS011;43158;51.026;18.190;2023-05-14T07:02:03;4.60;;;4.10;;
57319;SDS011;43158;51.026;18.190;2023-05-14T07:04:36;5.80;;;5.20;;
57319;SDS011;43158;51.026;18.190;2023-05-14T07:07:08;5.50;;;4.80;;
57319;SDS011;43158;51.026;18.190;2023-05-14T07:09:46;6.00;;;4.30;;
57319;SDS011;43158;51.026;18.190;2023-05-14T07:12:19;5.10;;;4.70;;
57319;SDS011;43158;51.026;18.190;2023-05-14T07:14:54;4.90;;;4.10;;
57319;SDS011;43158;51.026;18.190;2023-05-14T07:17:40;4.70;;;3.80;;
57319;SDS011;43158;51.026;18.190;2023-05-14T07:20:16;3.20;;;2.90;;
57319;SDS011;43158;51.026;18.190;2023-05-14T07:22:50;3.40;;;2.80;;
57319;SDS011;43158;51.026;18.190;2023-05-14T07:25:29;3.00;;;2.80;;
57319;SDS011;43158;51.026;18.190;2023-05-14T07:28:03;4.70;;;2.60;;
57319;SDS011;43158;51.026;18.190;2023-05-14T07:30:34;3.30;;;2.70;;
57319;SDS011;43158;51.026;18.190;2023-05-14T07:33:10;13.70;;;3.50;;
57319;SDS011;43158;51.026;18.190;2023-05-14T07:35:37;5.10;;;3.30;;
57319;SDS011;43158;51.026;18.190;2023-05-14T07:38:03;3.90;;;2.50;;
57319;SDS011;43158;51.026;18.190;2023-05-14T07:40:30;2.90;;;2.20;;
57319;SDS011;43158;51.026;18.190;2023-05-14T07:42:59;2.90;;;2.60;;
57319;SDS011;43158;51.026;18.190;2023-05-14T07:45:42;3.70;;;2.40;;
57319;SDS011;43158;51.026;18.190;2023-05-14T07:48:20;4.10;;;2.30;;
57319;SDS011;43158;51.026;18.190;2023-05-14T07:50:47;2.80;;;2.40;;
57319;SDS011;43158;51.026;18.190;2023-05-14T07:53:19;3.70;;;2.20;;
57319;SDS011;43158;51.026;18.190;2023-05-14T07:55:49;2.90;;;2.60;;
57319;SDS011;43158;51.026;18.190;2023-05-14T07:58:16;2.80;;;2.00;;
57319;SDS011;43158;51.026;18.190;2023-05-14T08:00:42;3.20;;;1.80;;
57319;SDS011;43158;51.026;18.190;2023-05-14T08:03:09;1.80;;;1.60;;
57319;SDS011;43158;51.026;18.190;2023-05-14T08:05:43;1.30;;;1.20;;
57319;SDS011;43158;51.026;18.190;2023-05-14T08:08:23;1.40;;;1.20;;
57319;SDS011;43158;51.026;18.190;2023-05-14T08:11:03;3.60;;;1.60;;
57319;SDS011;43158;51.026;18.190;2023-05-14T08:13:40;2.20;;;1.60;;
57319;SDS011;43158;51.026;18.190;2023-05-14T08:16:07;1.60;;;1.40;;
57319;SDS011;43158;51.026;18.190;2023-05-14T08:18:33;2.60;;;1.70;;
57319;SDS011;43158;51.026;18.190;2023-05-14T08:21:15;1.50;;;1.30;;
57319;SDS011;43158;51.026;18.190;2023-05-14T08:23:42;1.30;;;1.20;;
57319;SDS011;43158;51.026;18.190;2023-05-14T08:26:09;1.90;;;1.70;;
57319;SDS011;43158;51.026;18.190;2023-05-14T08:28:36;1.30;;;1.20;;
57319;SDS011;43158;51.026;18.190;2023-05-14T08:31:05;2.10;;;1.20;;
57319;SDS011;43158;51.026;18.190;2023-05-14T08:33:39;1.20;;;1.10;;
57319;SDS011;43158;51.026;18.190;2023-05-14T08:36:07;1.40;;;1.30;;
57319;SDS011;43158;51.026;18.190;2023-05-14T08:38:35;1.40;;;1.00;;
57319;SDS011;43158;51.026;18.190;2023-05-14T08:41:09;3.50;;;1.30;;
57319;SDS011;43158;51.026;18.190;2023-05-14T08:46:18;4.40;;;1.40;;
57319;SDS011;43158;51.026;18.190;2023-05-14T08:48:53;1.30;;;1.20;;
57319;SDS011;43158;51.026;18.190;2023-05-14T08:51:35;1.20;;;1.10;;
57319;SDS011;43158;51.026;18.190;2023-05-14T08:54:03;1.90;;;1.30;;
57319;SDS011;43158;51.026;18.190;2023-05-14T08:56:46;1.50;;;1.40;;
57319;SDS011;43158;51.026;18.190;2023-05-14T08:59:12;2.30;;;1.50;;
57319;SDS011;43158;51.026;18.190;2023-05-14T09:01:42;1.20;;;1.10;;
57319;SDS011;43158;51.026;18.190;2023-05-14T09:04:12;1.20;;;1.10;;
57319;SDS011;43158;51.026;18.190;2023-05-14T09:06:40;1.20;;;1.10;;
57319;SDS011;43158;51.026;18.190;2023-05-14T09:09:15;1.20;;;1.10;;
57319;SDS011;43158;51.026;18.190;2023-05-14T09:11:54;1.30;;;1.20;;
57319;SDS011;43158;51.026;18.190;2023-05-14T09:14:31;1.60;;;1.00;;
57319;SDS011;43158;51.026;18.190;2023-05-14T09:17:21;1.20;;;1.10;;
57319;SDS011;43158;51.026;18.190;2023-05-14T09:20:01;1.50;;;1.30;;
57319;SDS011;43158;51.026;18.190;2023-05-14T09:22:51;1.10;;;0.90;;
57319;SDS011;43158;51.026;18.190;2023-05-14T09:25:35;0.90;;;0.80;;
57319;SDS011;43158;51.026;18.190;2023-05-14T09:28:05;2.90;;;1.30;;
57319;SDS011;43158;51.026;18.190;2023-05-14T09:30:32;0.80;;;0.80;;
57319;SDS011;43158;51.026;18.190;2023-05-14T09:33:05;1.40;;;0.90;;
57319;SDS011;43158;51.026;18.190;2023-05-14T09:36:06;1.40;;;1.00;;
57319;SDS011;43158;51.026;18.190;2023-05-14T09:38:34;0.80;;;0.80;;
57319;SDS011;43158;51.026;18.190;2023-05-14T09:41:12;1.30;;;1.10;;
57319;SDS011;43158;51.026;18.190;2023-05-14T09:43:55;1.00;;;0.90;;
57319;SDS011;43158;51.026;18.190;2023-05-14T09:46:32;2.80;;;0.90;;
57319;SDS011;43158;51.026;18.190;2023-05-14T09:49:13;1.10;;;1.00;;
57319;SDS011;43158;51.026;18.190;2023-05-14T09:51:54;1.20;;;1.10;;
57319;SDS011;43158;51.026;18.190;2023-05-14T09:54:22;0.90;;;0.90;;
57319;SDS011;43158;51.026;18.190;2023-05-14T09:56:52;1.60;;;1.10;;
57319;SDS011;43158;51.026;18.190;2023-05-14T09:59:22;1.20;;;1.00;;
57319;SDS011;43158;51.026;18.190;2023-05-14T10:01:48;1.00;;;0.90;;
57319;SDS011;43158;51.026;18.190;2023-05-14T10:04:15;1.10;;;1.00;;
57319;SDS011;43158;51.026;18.190;2023-05-14T10:06:41;3.40;;;1.10;;
57319;SDS011;43158;51.026;18.190;2023-05-14T10:09:09;1.30;;;1.20;;
57319;SDS011;43158;51.026;18.190;2023-05-14T10:11:39;1.60;;;1.20;;
57319;SDS011;43158;51.026;18.190;2023-05-14T10:14:28;1.10;;;1.00;;
57319;SDS011;43158;51.026;18.190;2023-05-14T10:17:05;2.40;;;1.10;;
57319;SDS011;43158;51.026;18.190;2023-05-14T10:19:32;0.90;;;0.80;;
57319;SDS011;43158;51.026;18.190;2023-05-14T10:22:02;2.40;;;0.90;;
57319;SDS011;43158;51.026;18.190;2023-05-14T10:24:30;1.40;;;1.10;;
57319;SDS011;43158;51.026;18.190;2023-05-14T10:29:34;1.20;;;1.10;;
57319;SDS011;43158;51.026;18.190;2023-05-14T10:32:05;1.40;;;1.10;;
57319;SDS011;43158;51.026;18.190;2023-05-14T10:34:33;3.10;;;1.40;;
57319;SDS011;43158;51.026;18.190;2023-05-14T10:37:02;1.60;;;1.40;;
57319;SDS011;43158;51.026;18.190;2023-05-14T10:39:49;1.40;;;1.30;;
57319;SDS011;43158;51.026;18.190;2023-05-14T10:42:21;1.40;;;1.30;;
57319;SDS011;43158;51.026;18.190;2023-05-14T10:44:51;1.60;;;1.40;;
57319;SDS011;43158;51.026;18.190;2023-05-14T10:47:38;10.10;;;1.60;;
57319;SDS011;43158;51.026;18.190;2023-05-14T10:50:34;3.00;;;1.50;;
57319;SDS011;43158;51.026;18.190;2023-05-14T10:53:01;1.40;;;1.30;;
57319;SDS011;43158;51.026;18.190;2023-05-14T10:55:39;2.60;;;1.20;;
57319;SDS011;43158;51.026;18.190;2023-05-14T10:58:14;1.80;;;1.30;;
57319;SDS011;43158;51.026;18.190;2023-05-14T11:00:53;1.80;;;1.30;;
57319;SDS011;43158;51.026;18.190;2023-05-14T11:05:46;3.20;;;1.60;;
57319;SDS011;43158;51.026;18.190;2023-05-14T11:08:16;1.70;;;1.30;;
57319;SDS011;43158;51.026;18.190;2023-05-14T11:10:44;1.80;;;1.30;;
57319;SDS011;43158;51.026;18.190;2023-05-14T11:13:22;2.10;;;1.40;;
57319;SDS011;43158;51.026;18.190;2023-05-14T11:15:56;1.30;;;1.20;;
57319;SDS011;43158;51.026;18.190;2023-05-14T11:18:25;3.10;;;1.40;;
57319;SDS011;43158;51.026;18.190;2023-05-14T11:21:00;3.40;;;1.50;;
57319;SDS011;43158;51.026;18.190;2023-05-14T11:23:29;1.30;;;1.10;;
57319;SDS011;43158;51.026;18.190;2023-05-14T11:26:06;1.30;;;1.20;;
57319;SDS011;43158;51.026;18.190;2023-05-14T11:28:37;2.70;;;1.10;;
57319;SDS011;43158;51.026;18.190;2023-05-14T11:31:09;2.70;;;1.20;;
57319;SDS011;43158;51.026;18.190;2023-05-14T11:33:36;1.10;;;1.00;;
57319;SDS011;43158;51.026;18.190;2023-05-14T11:36:11;1.60;;;1.20;;
57319;SDS011;43158;51.026;18.190;2023-05-14T11:38:46;4.40;;;1.20;;
57319;SDS011;43158;51.026;18.190;2023-05-14T11:41:13;2.30;;;1.40;;
57319;SDS011;43158;51.026;18.190;2023-05-14T11:43:40;2.90;;;1.60;;
57319;SDS011;43158;51.026;18.190;2023-05-14T11:46:06;1.60;;;1.50;;
57319;SDS011;43158;51.026;18.190;2023-05-14T11:48:33;1.40;;;1.30;;
57319;SDS011;43158;51.026;18.190;2023-05-14T11:51:13;1.40;;;1.20;;
57319;SDS011;43158;51.026;18.190;2023-05-14T11:53:51;3.50;;;1.60;;
57319;SDS011;43158;51.026;18.190;2023-05-14T11:56:30;2.10;;;1.60;;
57319;SDS011;43158;51.026;18.190;2023-05-14T11:58:58;1.70;;;1.50;;
57319;SDS011;43158;51.026;18.190;2023-05-14T12:01:32;2.10;;;1.70;;
57319;SDS011;43158;51.026;18.190;2023-05-14T12:04:14;3.50;;;1.90;;
57319;SDS011;43158;51.026;18.190;2023-05-14T12:06:44;1.60;;;1.50;;
57319;SDS011;43158;51.026;18.190;2023-05-14T12:09:22;2.60;;;1.50;;
57319;SDS011;43158;51.026;18.190;2023-05-14T12:11:51;1.50;;;1.40;;
57319;SDS011;43158;51.026;18.190;2023-05-14T12:14:19;1.50;;;1.40;;
57319;SDS011;43158;51.026;18.190;2023-05-14T12:16:49;3.60;;;1.40;;
57319;SDS011;43158;51.026;18.190;2023-05-14T12:19:21;1.50;;;1.40;;
57319;SDS011;43158;51.026;18.190;2023-05-14T12:21:54;3.00;;;1.60;;
57319;SDS011;43158;51.026;18.190;2023-05-14T12:24:33;2.60;;;1.40;;
57319;SDS011;43158;51.026;18.190;2023-05-14T12:27:06;1.90;;;1.30;;
57319;SDS011;43158;51.026;18.190;2023-05-14T12:29:45;2.30;;;1.40;;
57319;SDS011;43158;51.026;18.190;2023-05-14T12:32:31;2.40;;;1.60;;
57319;SDS011;43158;51.026;18.190;2023-05-14T12:35:07;2.40;;;1.50;;
57319;SDS011;43158;51.026;18.190;2023-05-14T12:37:46;2.40;;;1.60;;
57319;SDS011;43158;51.026;18.190;2023-05-14T12:40:17;3.30;;;1.40;;
57319;SDS011;43158;51.026;18.190;2023-05-14T12:43:13;1.60;;;1.50;;
57319;SDS011;43158;51.026;18.190;2023-05-14T12:45:55;1.70;;;1.60;;
57319;SDS011;43158;51.026;18.190;2023-05-14T12:48:34;2.20;;;1.50;;
57319;SDS011;43158;51.026;18.190;2023-05-14T12:51:20;2.40;;;2.10;;
57319;SDS011;43158;51.026;18.190;2023-05-14T12:53:57;6.80;;;2.60;;
57319;SDS011;43158;51.026;18.190;2023-05-14T12:56:36;1.60;;;1.30;;
57319;SDS011;43158;51.026;18.190;2023-05-14T12:59:13;1.40;;;1.20;;
57319;SDS011;43158;51.026;18.190;2023-05-14T13:01:41;2.40;;;1.70;;
57319;SDS011;43158;51.026;18.190;2023-05-14T13:04:11;1.70;;;1.60;;
57319;SDS011;43158;51.026;18.190;2023-05-14T13:06:44;1.70;;;1.60;;
57319;SDS011;43158;51.026;18.190;2023-05-14T13:09:18;1.80;;;1.70;;
57319;SDS011;43158;51.026;18.190;2023-05-14T13:11:59;3.30;;;1.70;;
57319;SDS011;43158;51.026;18.190;2023-05-14T13:14:45;1.80;;;1.60;;
57319;SDS011;43158;51.026;18.190;2023-05-14T13:17:26;2.10;;;1.60;;
57319;SDS011;43158;51.026;18.190;2023-05-14T13:20:06;2.90;;;1.80;;
57319;SDS011;43158;51.026;18.190;2023-05-14T13:22:36;1.80;;;1.70;;
57319;SDS011;43158;51.026;18.190;2023-05-14T13:25:16;1.70;;;1.60;;
57319;SDS011;43158;51.026;18.190;2023-05-14T13:27:44;2.80;;;2.00;;
57319;SDS011;43158;51.026;18.190;2023-05-14T13:30:23;2.00;;;1.60;;
57319;SDS011;43158;51.026;18.190;2023-05-14T13:33:01;2.10;;;2.00;;
57319;SDS011;43158;51.026;18.190;2023-05-14T13:35:39;3.20;;;2.00;;
57319;SDS011;43158;51.026;18.190;2023-05-14T13:38:07;4.10;;;1.70;;
57319;SDS011;43158;51.026;18.190;2023-05-14T13:40:40;4.20;;;2.00;;
57319;SDS011;43158;51.026;18.190;2023-05-14T13:43:24;3.30;;;2.50;;
57319;SDS011;43158;51.026;18.190;2023-05-14T13:45:51;3.10;;;2.10;;
57319;SDS011;43158;51.026;18.190;2023-05-14T13:48:20;2.30;;;2.00;;
57319;SDS011;43158;51.026;18.190;2023-05-14T13:50:55;2.90;;;2.50;;
57319;SDS011;43158;51.026;18.190;2023-05-14T13:53:22;4.60;;;2.30;;
57319;SDS011;43158;51.026;18.190;2023-05-14T13:55:49;5.30;;;2.70;;
57319;SDS011;43158;51.026;18.190;2023-05-14T13:58:21;4.30;;;2.80;;
57319;SDS011;43158;51.026;18.190;2023-05-14T14:00:48;3.00;;;2.60;;
57319;SDS011;43158;51.026;18.190;2023-05-14T14:03:15;3.00;;;2.70;;
57319;SDS011;43158;51.026;18.190;2023-05-14T14:05:43;2.90;;;2.60;;
57319;SDS011;43158;51.026;18.190;2023-05-14T14:08:10;3.40;;;3.10;;
57319;SDS011;43158;51.026;18.190;2023-05-14T14:10:41;4.10;;;3.00;;
57319;SDS011;43158;51.026;18.190;2023-05-14T14:13:08;3.10;;;2.80;;
57319;SDS011;43158;51.026;18.190;2023-05-14T14:15:36;4.20;;;2.50;;
57319;SDS011;43158;51.026;18.190;2023-05-14T14:18:02;4.00;;;2.60;;
57319;SDS011;43158;51.026;18.190;2023-05-14T14:20:29;4.90;;;2.20;;
57319;SDS011;43158;51.026;18.190;2023-05-14T14:23:03;2.50;;;2.30;;
57319;SDS011;43158;51.026;18.190;2023-05-14T14:25:39;3.90;;;2.40;;
57319;SDS011;43158;51.026;18.190;2023-05-14T14:28:07;3.50;;;2.60;;
57319;SDS011;43158;51.026;18.190;2023-05-14T14:30:35;2.50;;;2.20;;
57319;SDS011;43158;51.026;18.190;2023-05-14T14:33:07;3.10;;;2.20;;
57319;SDS011;43158;51.026;18.190;2023-05-14T14:35:36;5.50;;;2.40;;
57319;SDS011;43158;51.026;18.190;2023-05-14T14:38:08;2.30;;;2.10;;
57319;SDS011;43158;51.026;18.190;2023-05-14T14:40:35;3.00;;;2.50;;
57319;SDS011;43158;51.026;18.190;2023-05-14T14:45:39;2.80;;;2.60;;
57319;SDS011;43158;51.026;18.190;2023-05-14T14:48:27;4.90;;;2.60;;
57319;SDS011;43158;51.026;18.190;2023-05-14T14:51:05;3.70;;;2.30;;
57319;SDS011;43158;51.026;18.190;2023-05-14T14:53:39;2.70;;;2.50;;
57319;SDS011;43158;51.026;18.190;2023-05-14T14:56:06;2.50;;;2.30;;
57319;SDS011;43158;51.026;18.190;2023-05-14T14:58:32;4.00;;;2.60;;